INFORMACIÓN METAR y TAF
METAR FOR LEBA
ADDS - METARS form results

(0626 UTC 30 September 2022)
Data provider http://aviationweather.gov/metar/data/
 
METAR text: LEBA 300600Z 00000KT CAVOK 10/10 Q1013
Conditions at: LEBA (CORDOBA AIRPORT , ES) observed 0600 UTC 30 September 2022
Temperature: 10.0°C (50°F)
Dewpoint: 10.0°C (50°F) [RH = 100%]
Pressure (altimeter): 29.91 inches Hg (1013.0 mb)
Winds: calm
Visibility: 6 or more miles (10+ km)
Ceiling: ceiling and visibility are OK
Clouds: unknown
Weather: no significant weather observed at this time

METAR text: LEBA 300530Z AUTO VRB02KT CAVOK 10/10 Q1012
Conditions at: LEBA (CORDOBA AIRPORT , ES) observed 0530 UTC 30 September 2022
Temperature: 10.0°C (50°F)
Dewpoint: 10.0°C (50°F) [RH = 100%]
Pressure (altimeter): 29.88 inches Hg (1012.0 mb)
Winds: variable direction winds at 2 MPH (2 knots; 1.0 m/s)
Visibility: 6 or more miles (10+ km)
Ceiling: ceiling and visibility are OK
Clouds: unknown
Weather: no significant weather observed at this time

Forecast for: LEBA (CORDOBA AIRPORT , ES)
Text: TAF LEBA 300200Z 3003/0103 VRB02KT 9999 FEW040 TX26/3015Z TN12/3006Z
Forecast period: 0300 to 0600 UTC 30 September 2022
Forecast type: FROM: standard forecast or significant change
Winds: variable direction winds at 2 MPH (2 knots; 1.0 m/s)
Visibility: 6 or more miles (10+ km)
Ceiling: at least 12,000 feet AGL
Clouds: few clouds at 4000 feet AGL
Weather: no significant weather forecast for this period
Text: BECMG 3006/3009 06010KT
Forecast period: 0600 UTC 30 September 2022 to 0300 UTC 01 October 2022
Forecast type: BECOMING: Conditions expected to become as follows by 0900 UTC 30 September 2022
Winds: from the ENE (60 degrees) at 12 MPH (10 knots; 5.1 m/s)
Visibility: 6 or more miles (10+ km)
Ceiling: at least 12,000 feet AGL
Clouds: few clouds at 4000 feet AGL
Weather: no significant weather forecast for this period

 MAPA DE AEROPUERTO

 INFORMACIÓN DE PISTA
Pista 03 Longitud 4527 ft Ancho 148 ft
Elevación 293 ft Umbral desplazado 0 ft Rumbo de pista 29
Pista 21 Longitud 4527 ft Ancho 148 ft
Elevación 297 ft Umbral desplazado 0 ft Rumbo de pista 209

 FRECUANCIAS DEL AEROPUERTO
Tipo CTAF Nombre CTAF Frecuencia 118.3 MHZ

 RADIO AYUDAS DEL AEROPUERTO
Tipo VOR-DME Nombre Cordoba Frecuencia 112400 KHZ
Tipo NDB Nombre Cordoba Frecuencia 366 KHZ



Powered by Virtual Airlines Manager [v2.6.2]